עמוד ראשי
METAR-TAF:

METAR-TAF

שדות תעופה :

קירקוול, סקוטלנד

קו רוחב: 58-57N, קו אורך: 002-54W, גובה: 21מטר

תצפית מזג אוויר נוכחית

הדו"ח נערך לפני 32דקות, בשעה 21:50 UTC
רוח 2קשר מכיוון מערב/דרום-מערב
טמפרטורת 10 צלסיוס
לחות 93%
לחץ 1018 hPa
ראות 10 קילומטר או יותר

METAR: EGPA 182150Z AUTO 24002KT 9999 OVC021/// 10/09 Q1018

זמן: 23:22 (22:22 UTC)

תחזית

הדו"ח נערך לפני 2 שעות ו 25דקות, בשעה 19:57 UTC
תחזית בתוקף מ 18 ב 21 UTC עד 19 ב 06 UTC
רוח 3קשר עם כיוונים משתנים
ראות 10 קילומטר או יותר
עננים בינוניים בגובה 1800רגל
הסתברות 40% :
זמנית מ -
18 ב 21 UTC עד 19 ב 03 UTC
עננים בינוניים בגובה 1200רגל
זמנית מ -
19 ב 03 UTC עד 19 ב 06 UTC
ראות: 6000מטר
עננים בינוניים בגובה 800רגל
גשם קל
הסתברות 30% :
זמנית מ -
19 ב 03 UTC עד 19 ב 06 UTC
עננים בינוניים בגובה 400רגל

TAF: EGPA 181957Z 1821/1906 VRB03KT 9999 BKN018 PROB40 TEMPO 1821/1903 BKN012 TEMPO 1903/1906 6000 -RA BKN008 PROB30 TEMPO 1903/1906 BKN004

תצפיות ותחזיות מזג אוויר לגבי יותר מ- 4,000 שדות תעופה ברחבי העולם. דוחות METAR ו- TAF.

התחנות הזמינות מסומנות בנקודות צהובות ואדומות על גבי המפה.

העבר את העכבר לנקודה הצבעונית על מנת לראות את שם התחנה.

לאחר מכן, לחץ כדי לראות את תוכן ואת תחזיות מזג האוויר.

כדי לשנות את המפה: לחץ על הכפתורים הירוקים עם הפלוס השחור כדי להתקרב; על הכפתור הירוק עם המקף כדי להתרחק; או בחיצים הירוקים למפות סמוכות.


METAR-TAF: